sensor_id;sensor_type;location;lat;lon;timestamp;pressure;altitude;pressure_sealevel;temperature;humidity
78592;BME280;67889;48.352;11.392;2023-03-01T00:01:46;96902.03;;;0.12;74.80
78592;BME280;67889;48.352;11.392;2023-03-01T00:04:12;96904.72;;;0.12;74.78
78592;BME280;67889;48.352;11.392;2023-03-01T00:06:37;96912.75;;;0.12;75.90
78592;BME280;67889;48.352;11.392;2023-03-01T00:09:03;96900.97;;;0.13;75.39
78592;BME280;67889;48.352;11.392;2023-03-01T00:11:30;96899.69;;;0.11;74.89
78592;BME280;67889;48.352;11.392;2023-03-01T00:13:59;96899.97;;;0.09;75.44
78592;BME280;67889;48.352;11.392;2023-03-01T00:16:29;96914.75;;;0.07;75.38
78592;BME280;67889;48.352;11.392;2023-03-01T00:18:55;96907.03;;;0.05;75.30
78592;BME280;67889;48.352;11.392;2023-03-01T00:21:21;96899.31;;;0.04;75.78
78592;BME280;67889;48.352;11.392;2023-03-01T00:23:48;96898.50;;;0.03;76.14
78592;BME280;67889;48.352;11.392;2023-03-01T00:26:15;96892.94;;;-0.01;75.60
78592;BME280;67889;48.352;11.392;2023-03-01T00:28:41;96893.97;;;0.04;75.67
78592;BME280;67889;48.352;11.392;2023-03-01T00:31:10;96888.13;;;0.02;76.08
78592;BME280;67889;48.352;11.392;2023-03-01T00:33:35;96890.19;;;0.05;77.12
78592;BME280;67889;48.352;11.392;2023-03-01T00:36:02;96885.94;;;0.04;76.09
78592;BME280;67889;48.352;11.392;2023-03-01T00:38:28;96885.63;;;0.05;75.74
78592;BME280;67889;48.352;11.392;2023-03-01T00:40:54;96876.81;;;0.05;75.99
78592;BME280;67889;48.352;11.392;2023-03-01T00:43:19;96875.25;;;0.04;75.67
78592;BME280;67889;48.352;11.392;2023-03-01T00:45:45;96878.72;;;0.04;76.00
78592;BME280;67889;48.352;11.392;2023-03-01T00:48:10;96880.91;;;0.02;76.71
78592;BME280;67889;48.352;11.392;2023-03-01T00:50:36;96878.53;;;0.01;75.83
78592;BME280;67889;48.352;11.392;2023-03-01T00:53:01;96876.66;;;0.01;75.41
78592;BME280;67889;48.352;11.392;2023-03-01T00:55:27;96869.13;;;0.03;76.38
78592;BME280;67889;48.352;11.392;2023-03-01T00:57:52;96868.03;;;0.04;74.82
78592;BME280;67889;48.352;11.392;2023-03-01T01:00:18;96853.94;;;-0.02;75.97
78592;BME280;67889;48.352;11.392;2023-03-01T01:02:45;96856.22;;;0.05;75.63
78592;BME280;67889;48.352;11.392;2023-03-01T01:05:10;96849.63;;;0.03;75.66
78592;BME280;67889;48.352;11.392;2023-03-01T01:07:36;96854.06;;;0.07;74.94
78592;BME280;67889;48.352;11.392;2023-03-01T01:10:01;96854.84;;;0.08;74.78
78592;BME280;67889;48.352;11.392;2023-03-01T01:12:27;96854.34;;;0.06;74.48
78592;BME280;67889;48.352;11.392;2023-03-01T01:14:52;96846.34;;;0.06;74.99
78592;BME280;67889;48.352;11.392;2023-03-01T01:17:17;96841.00;;;0.06;74.24
78592;BME280;67889;48.352;11.392;2023-03-01T01:19:43;96834.06;;;0.05;74.74
78592;BME280;67889;48.352;11.392;2023-03-01T01:22:08;96832.97;;;0.06;74.45
78592;BME280;67889;48.352;11.392;2023-03-01T01:24:33;96829.69;;;0.09;75.70
78592;BME280;67889;48.352;11.392;2023-03-01T01:26:59;96833.28;;;0.04;74.60
78592;BME280;67889;48.352;11.392;2023-03-01T01:29:24;96839.09;;;0.06;74.35
78592;BME280;67889;48.352;11.392;2023-03-01T01:31:49;96833.28;;;0.04;75.01
78592;BME280;67889;48.352;11.392;2023-03-01T01:34:17;96830.13;;;0.02;74.27
78592;BME280;67889;48.352;11.392;2023-03-01T01:36:43;96826.03;;;0.05;74.97
78592;BME280;67889;48.352;11.392;2023-03-01T01:39:12;96828.22;;;0.03;75.42
78592;BME280;67889;48.352;11.392;2023-03-01T01:41:39;96821.00;;;0.03;75.24
78592;BME280;67889;48.352;11.392;2023-03-01T01:44:22;96827.94;;;0.04;75.47
78592;BME280;67889;48.352;11.392;2023-03-01T01:46:58;96823.38;;;0.05;75.38
78592;BME280;67889;48.352;11.392;2023-03-01T01:52:04;96823.84;;;0.07;74.00
78592;BME280;67889;48.352;11.392;2023-03-01T01:57:07;96819.13;;;0.04;74.74
78592;BME280;67889;48.352;11.392;2023-03-01T01:59:36;96818.03;;;0.05;75.44
78592;BME280;67889;48.352;11.392;2023-03-01T02:02:03;96818.81;;;0.05;75.44
78592;BME280;67889;48.352;11.392;2023-03-01T02:04:30;96811.09;;;0.04;74.65
78592;BME280;67889;48.352;11.392;2023-03-01T02:07:09;96811.59;;;0.06;74.72
78592;BME280;67889;48.352;11.392;2023-03-01T02:09:38;96808.13;;;0.05;74.51
78592;BME280;67889;48.352;11.392;2023-03-01T02:12:05;96809.88;;;0.10;74.30
78592;BME280;67889;48.352;11.392;2023-03-01T02:14:30;96810.78;;;0.05;75.49
78592;BME280;67889;48.352;11.392;2023-03-01T02:16:56;96808.13;;;0.05;73.85
78592;BME280;67889;48.352;11.392;2023-03-01T02:22:11;96800.41;;;0.04;74.99
78592;BME280;67889;48.352;11.392;2023-03-01T02:27:19;96801.00;;;0.01;75.40
78592;BME280;67889;48.352;11.392;2023-03-01T02:29:50;96799.91;;;0.02;75.57
78592;BME280;67889;48.352;11.392;2023-03-01T02:32:16;96791.59;;;0.03;75.00
78592;BME280;67889;48.352;11.392;2023-03-01T02:34:52;96791.00;;;0.06;74.50
78592;BME280;67889;48.352;11.392;2023-03-01T02:37:18;96794.75;;;0.05;73.87
78592;BME280;67889;48.352;11.392;2023-03-01T02:39:55;96788.94;;;0.03;74.63
78592;BME280;67889;48.352;11.392;2023-03-01T02:42:27;96792.69;;;0.02;74.51
78592;BME280;67889;48.352;11.392;2023-03-01T02:44:55;96786.44;;;0.07;74.71
78592;BME280;67889;48.352;11.392;2023-03-01T02:47:21;96786.25;;;0.03;74.35
78592;BME280;67889;48.352;11.392;2023-03-01T02:49:46;96789.22;;;0.02;74.60
78592;BME280;67889;48.352;11.392;2023-03-01T02:52:21;96780.13;;;0.03;74.98
78592;BME280;67889;48.352;11.392;2023-03-01T02:54:56;96780.13;;;0.03;74.25
78592;BME280;67889;48.352;11.392;2023-03-01T02:57:23;96779.13;;;-0.02;75.09
78592;BME280;67889;48.352;11.392;2023-03-01T02:59:51;96776.16;;;0.00;75.09
78592;BME280;67889;48.352;11.392;2023-03-01T03:02:26;96779.13;;;-0.02;75.34
78592;BME280;67889;48.352;11.392;2023-03-01T03:05:22;96776.97;;;0.01;75.27
78592;BME280;67889;48.352;11.392;2023-03-01T03:07:49;96773.38;;;0.05;74.83
78592;BME280;67889;48.352;11.392;2023-03-01T03:10:21;96780.50;;;-0.04;75.25
78592;BME280;67889;48.352;11.392;2023-03-01T03:12:52;96777.53;;;-0.03;74.08
78592;BME280;67889;48.352;11.392;2023-03-01T03:15:17;96777.84;;;-0.04;75.02
78592;BME280;67889;48.352;11.392;2023-03-01T03:17:43;96786.78;;;-0.09;74.35
78592;BME280;67889;48.352;11.392;2023-03-01T03:20:11;96784.41;;;-0.10;74.34
78592;BME280;67889;48.352;11.392;2023-03-01T03:22:40;96774.81;;;-0.11;74.80
78592;BME280;67889;48.352;11.392;2023-03-01T03:25:07;96775.91;;;-0.12;74.72
78592;BME280;67889;48.352;11.392;2023-03-01T03:27:39;96771.94;;;-0.15;75.66
78592;BME280;67889;48.352;11.392;2023-03-01T03:30:07;96773.66;;;-0.19;74.81
78592;BME280;67889;48.352;11.392;2023-03-01T03:32:38;96782.75;;;-0.20;74.13
78592;BME280;67889;48.352;11.392;2023-03-01T03:35:04;96779.72;;;-0.27;74.54
78592;BME280;67889;48.352;11.392;2023-03-01T03:37:38;96776.44;;;-0.24;74.65
78592;BME280;67889;48.352;11.392;2023-03-01T03:40:23;96773.28;;;-0.26;73.33
78592;BME280;67889;48.352;11.392;2023-03-01T03:42:49;96770.44;;;-0.29;74.13
78592;BME280;67889;48.352;11.392;2023-03-01T03:45:15;96772.72;;;-0.37;74.40
78592;BME280;67889;48.352;11.392;2023-03-01T03:47:41;96769.88;;;-0.40;74.34
78592;BME280;67889;48.352;11.392;2023-03-01T03:50:07;96772.38;;;-0.44;74.65
78592;BME280;67889;48.352;11.392;2023-03-01T03:52:32;96767.81;;;-0.43;75.48
78592;BME280;67889;48.352;11.392;2023-03-01T03:54:57;96765.63;;;-0.41;73.94
78592;BME280;67889;48.352;11.392;2023-03-01T03:57:23;96767.31;;;-0.45;73.97
78592;BME280;67889;48.352;11.392;2023-03-01T03:59:48;96760.22;;;-0.50;75.21
78592;BME280;67889;48.352;11.392;2023-03-01T04:02:13;96752.50;;;-0.51;74.46
78592;BME280;67889;48.352;11.392;2023-03-01T04:04:47;96751.84;;;-0.57;74.86
78592;BME280;67889;48.352;11.392;2023-03-01T04:07:15;96750.97;;;-0.66;74.95
78592;BME280;67889;48.352;11.392;2023-03-01T04:09:40;96750.28;;;-0.72;75.66
78592;BME280;67889;48.352;11.392;2023-03-01T04:12:07;96738.94;;;-0.77;75.67
78592;BME280;67889;48.352;11.392;2023-03-01T04:14:33;96731.06;;;-0.96;75.25
78592;BME280;67889;48.352;11.392;2023-03-01T04:16:58;96750.72;;;-0.92;76.25
78592;BME280;67889;48.352;11.392;2023-03-01T04:19:23;96747.19;;;-1.01;75.58
78592;BME280;67889;48.352;11.392;2023-03-01T04:21:49;96744.75;;;-1.11;76.70
78592;BME280;67889;48.352;11.392;2023-03-01T04:24:14;96749.88;;;-1.28;76.54
78592;BME280;67889;48.352;11.392;2023-03-01T04:26:39;96748.22;;;-1.38;76.26
78592;BME280;67889;48.352;11.392;2023-03-01T04:29:04;96756.41;;;-1.48;77.25
78592;BME280;67889;48.352;11.392;2023-03-01T04:31:30;96760.56;;;-1.56;77.68
78592;BME280;67889;48.352;11.392;2023-03-01T04:33:55;96747.63;;;-1.63;77.69
78592;BME280;67889;48.352;11.392;2023-03-01T04:36:26;96760.25;;;-1.68;78.03
78592;BME280;67889;48.352;11.392;2023-03-01T04:38:52;96750.47;;;-1.73;78.56
78592;BME280;67889;48.352;11.392;2023-03-01T04:41:20;96737.44;;;-1.74;78.92
78592;BME280;67889;48.352;11.392;2023-03-01T04:43:46;96746.09;;;-1.82;78.31
78592;BME280;67889;48.352;11.392;2023-03-01T04:46:14;96754.41;;;-1.84;78.84
78592;BME280;67889;48.352;11.392;2023-03-01T04:48:41;96751.53;;;-1.87;78.48
78592;BME280;67889;48.352;11.392;2023-03-01T04:51:07;96747.00;;;-1.87;78.61
78592;BME280;67889;48.352;11.392;2023-03-01T04:53:34;96740.38;;;-1.89;78.92
78592;BME280;67889;48.352;11.392;2023-03-01T04:56:01;96745.41;;;-1.88;79.33
78592;BME280;67889;48.352;11.392;2023-03-01T04:58:27;96745.69;;;-1.89;79.46
78592;BME280;67889;48.352;11.392;2023-03-01T05:00:53;96735.72;;;-1.98;80.48
78592;BME280;67889;48.352;11.392;2023-03-01T05:03:19;96740.06;;;-2.02;79.73
78592;BME280;67889;48.352;11.392;2023-03-01T05:05:46;96743.31;;;-2.05;80.37
78592;BME280;67889;48.352;11.392;2023-03-01T05:08:12;96732.94;;;-2.06;79.37
78592;BME280;67889;48.352;11.392;2023-03-01T05:10:47;96734.53;;;-2.05;79.92
78592;BME280;67889;48.352;11.392;2023-03-01T05:13:13;96741.22;;;-2.08;79.83
78592;BME280;67889;48.352;11.392;2023-03-01T05:15:45;96731.06;;;-2.06;80.00
78592;BME280;67889;48.352;11.392;2023-03-01T05:18:11;96737.09;;;-2.00;78.35
78592;BME280;67889;48.352;11.392;2023-03-01T05:20:37;96727.72;;;-1.98;79.26
78592;BME280;67889;48.352;11.392;2023-03-01T05:23:03;96730.47;;;-2.03;78.79
78592;BME280;67889;48.352;11.392;2023-03-01T05:25:31;96728.59;;;-2.02;78.65
78592;BME280;67889;48.352;11.392;2023-03-01T05:27:58;96729.19;;;-2.05;79.87
78592;BME280;67889;48.352;11.392;2023-03-01T05:30:24;96726.13;;;-2.12;80.42
78592;BME280;67889;48.352;11.392;2023-03-01T05:32:50;96724.03;;;-2.15;79.57
78592;BME280;67889;48.352;11.392;2023-03-01T05:35:21;96735.00;;;-2.17;80.10
78592;BME280;67889;48.352;11.392;2023-03-01T05:37:47;96733.50;;;-2.23;80.69
78592;BME280;67889;48.352;11.392;2023-03-01T05:40:17;96731.13;;;-2.24;80.05
78592;BME280;67889;48.352;11.392;2023-03-01T05:42:48;96739.91;;;-2.24;80.00
78592;BME280;67889;48.352;11.392;2023-03-01T05:45:14;96726.28;;;-2.22;79.31
78592;BME280;67889;48.352;11.392;2023-03-01T05:47:43;96731.25;;;-2.16;80.52
78592;BME280;67889;48.352;11.392;2023-03-01T05:50:17;96734.19;;;-2.17;80.27
78592;BME280;67889;48.352;11.392;2023-03-01T05:52:48;96738.44;;;-2.16;79.89
78592;BME280;67889;48.352;11.392;2023-03-01T05:55:16;96739.72;;;-2.14;79.04
78592;BME280;67889;48.352;11.392;2023-03-01T05:57:42;96734.31;;;-2.09;79.98
78592;BME280;67889;48.352;11.392;2023-03-01T06:00:09;96731.94;;;-2.10;78.96
78592;BME280;67889;48.352;11.392;2023-03-01T06:02:35;96732.72;;;-2.10;78.11
78592;BME280;67889;48.352;11.392;2023-03-01T06:05:00;96740.72;;;-2.10;78.61
78592;BME280;67889;48.352;11.392;2023-03-01T06:07:27;96736.09;;;-2.04;78.47
78592;BME280;67889;48.352;11.392;2023-03-01T06:09:54;96738.59;;;-1.94;79.36
78592;BME280;67889;48.352;11.392;2023-03-01T06:12:19;96733.97;;;-1.88;78.47
78592;BME280;67889;48.352;11.392;2023-03-01T06:14:46;96737.53;;;-1.79;77.95
78592;BME280;67889;48.352;11.392;2023-03-01T06:17:12;96743.94;;;-1.80;77.06
78592;BME280;67889;48.352;11.392;2023-03-01T06:19:38;96734.78;;;-1.74;77.31
78592;BME280;67889;48.352;11.392;2023-03-01T06:22:04;96742.66;;;-1.69;78.20
78592;BME280;67889;48.352;11.392;2023-03-01T06:24:29;96746.72;;;-1.58;78.34
78592;BME280;67889;48.352;11.392;2023-03-01T06:26:55;96750.88;;;-1.52;78.82
78592;BME280;67889;48.352;11.392;2023-03-01T06:29:21;96745.94;;;-1.45;76.35
78592;BME280;67889;48.352;11.392;2023-03-01T06:31:47;96745.16;;;-1.45;76.69
78592;BME280;67889;48.352;11.392;2023-03-01T06:34:14;96753.16;;;-1.45;75.76
78592;BME280;67889;48.352;11.392;2023-03-01T06:36:39;96751.38;;;-1.36;76.09
78592;BME280;67889;48.352;11.392;2023-03-01T06:39:05;96743.75;;;-1.29;76.00
78592;BME280;67889;48.352;11.392;2023-03-01T06:41:31;96749.59;;;-1.27;74.55
78592;BME280;67889;48.352;11.392;2023-03-01T06:43:58;96751.66;;;-1.24;74.24
78592;BME280;67889;48.352;11.392;2023-03-01T06:46:24;96746.91;;;-1.13;74.63
78592;BME280;67889;48.352;11.392;2023-03-01T06:48:49;96748.78;;;-1.14;74.18
78592;BME280;67889;48.352;11.392;2023-03-01T06:51:14;96746.41;;;-1.15;73.49
78592;BME280;67889;48.352;11.392;2023-03-01T06:53:40;96746.63;;;-1.12;73.99
78592;BME280;67889;48.352;11.392;2023-03-01T06:56:05;96752.03;;;-1.03;73.29
78592;BME280;67889;48.352;11.392;2023-03-01T06:58:32;96755.38;;;-0.98;73.75
78592;BME280;67889;48.352;11.392;2023-03-01T07:00:57;96743.03;;;-0.93;73.75
78592;BME280;67889;48.352;11.392;2023-03-01T07:03:23;96734.63;;;-0.87;72.75
78592;BME280;67889;48.352;11.392;2023-03-01T07:05:49;96738.94;;;-0.77;73.09
78592;BME280;67889;48.352;11.392;2023-03-01T07:08:17;96741.50;;;-0.72;72.73
78592;BME280;67889;48.352;11.392;2023-03-01T07:10:42;96735.56;;;-0.69;72.90
78592;BME280;67889;48.352;11.392;2023-03-01T07:13:08;96743.63;;;-0.60;71.55
78592;BME280;67889;48.352;11.392;2023-03-01T07:15:33;96729.31;;;-0.65;71.42
78592;BME280;67889;48.352;11.392;2023-03-01T07:17:59;96723.56;;;-0.58;71.25
78592;BME280;67889;48.352;11.392;2023-03-01T07:20:24;96723.31;;;-0.48;71.13
78592;BME280;67889;48.352;11.392;2023-03-01T07:22:52;96720.72;;;-0.39;71.21
78592;BME280;67889;48.352;11.392;2023-03-01T07:25:17;96716.66;;;-0.37;71.25
78592;BME280;67889;48.352;11.392;2023-03-01T07:27:43;96715.91;;;-0.28;70.30
78592;BME280;67889;48.352;11.392;2023-03-01T07:30:09;96717.06;;;-0.21;71.20
78592;BME280;67889;48.352;11.392;2023-03-01T07:32:34;96710.38;;;-0.10;70.03
78592;BME280;67889;48.352;11.392;2023-03-01T07:35:00;96710.63;;;0.03;69.23
78592;BME280;67889;48.352;11.392;2023-03-01T07:37:26;96710.97;;;0.10;69.02
78592;BME280;67889;48.352;11.392;2023-03-01T07:39:51;96705.00;;;0.13;68.78
78592;BME280;67889;48.352;11.392;2023-03-01T07:42:19;96715.13;;;0.24;67.82
78592;BME280;67889;48.352;11.392;2023-03-01T07:44:44;96714.88;;;0.35;68.22
78592;BME280;67889;48.352;11.392;2023-03-01T07:47:09;96706.50;;;0.27;67.19
78592;BME280;67889;48.352;11.392;2023-03-01T07:49:34;96710.41;;;0.21;67.25
78592;BME280;67889;48.352;11.392;2023-03-01T07:52:00;96709.22;;;0.36;70.21
78592;BME280;67889;48.352;11.392;2023-03-01T07:54:25;96702.97;;;0.49;66.21
78592;BME280;67889;48.352;11.392;2023-03-01T07:56:51;96704.22;;;0.52;67.03
78592;BME280;67889;48.352;11.392;2023-03-01T07:59:17;96700.97;;;0.63;66.40
78592;BME280;67889;48.352;11.392;2023-03-01T08:01:42;96707.00;;;0.86;66.86
78592;BME280;67889;48.352;11.392;2023-03-01T08:04:08;96706.84;;;0.91;65.76
78592;BME280;67889;48.352;11.392;2023-03-01T08:06:35;96703.06;;;0.84;65.15
78592;BME280;67889;48.352;11.392;2023-03-01T08:09:00;96700.88;;;0.94;65.48
78592;BME280;67889;48.352;11.392;2023-03-01T08:11:25;96698.69;;;1.05;66.01
78592;BME280;67889;48.352;11.392;2023-03-01T08:13:53;96705.47;;;1.11;63.87
78592;BME280;67889;48.352;11.392;2023-03-01T08:16:18;96690.50;;;1.02;64.98
78592;BME280;67889;48.352;11.392;2023-03-01T08:18:44;96699.16;;;1.07;64.04
78592;BME280;67889;48.352;11.392;2023-03-01T08:21:12;96696.50;;;1.16;65.60
78592;BME280;67889;48.352;11.392;2023-03-01T08:23:37;96691.47;;;1.40;66.09
78592;BME280;67889;48.352;11.392;2023-03-01T08:26:11;96695.09;;;1.44;64.78
78592;BME280;67889;48.352;11.392;2023-03-01T08:28:38;96693.19;;;1.45;64.24
78592;BME280;67889;48.352;11.392;2023-03-01T08:31:14;96691.31;;;1.37;64.82
78592;BME280;67889;48.352;11.392;2023-03-01T08:33:40;96694.44;;;1.39;64.43
78592;BME280;67889;48.352;11.392;2023-03-01T08:36:05;96688.00;;;1.48;63.33
78592;BME280;67889;48.352;11.392;2023-03-01T08:38:32;96676.16;;;1.49;62.83
78592;BME280;67889;48.352;11.392;2023-03-01T08:41:02;96693.97;;;1.63;62.83
78592;BME280;67889;48.352;11.392;2023-03-01T08:43:28;96694.28;;;1.61;63.69
78592;BME280;67889;48.352;11.392;2023-03-01T08:45:53;96696.94;;;1.78;63.80
78592;BME280;67889;48.352;11.392;2023-03-01T08:48:19;96688.41;;;1.85;63.26
78592;BME280;67889;48.352;11.392;2023-03-01T08:50:44;96681.75;;;2.00;62.20
78592;BME280;67889;48.352;11.392;2023-03-01T08:53:09;96682.53;;;2.00;61.36
78592;BME280;67889;48.352;11.392;2023-03-01T08:55:34;96678.56;;;2.15;61.71
78592;BME280;67889;48.352;11.392;2023-03-01T08:58:00;96670.16;;;2.25;61.62
78592;BME280;67889;48.352;11.392;2023-03-01T09:00:25;96671.75;;;2.17;60.77
78592;BME280;67889;48.352;11.392;2023-03-01T09:02:51;96680.31;;;2.11;62.52
78592;BME280;67889;48.352;11.392;2023-03-01T09:05:31;96669.44;;;2.07;63.48
78592;BME280;67889;48.352;11.392;2023-03-01T09:07:57;96672.25;;;2.11;61.88
78592;BME280;67889;48.352;11.392;2023-03-01T09:10:22;96664.34;;;2.14;61.42
78592;BME280;67889;48.352;11.392;2023-03-01T09:12:47;96678.22;;;2.16;62.65
78592;BME280;67889;48.352;11.392;2023-03-01T09:15:12;96667.28;;;2.30;61.79
78592;BME280;67889;48.352;11.392;2023-03-01T09:17:38;96662.59;;;2.56;60.42
78592;BME280;67889;48.352;11.392;2023-03-01T09:20:03;96656.66;;;2.72;59.94
78592;BME280;67889;48.352;11.392;2023-03-01T09:22:31;96672.69;;;2.59;60.89
78592;BME280;67889;48.352;11.392;2023-03-01T09:24:57;96661.31;;;2.63;60.12
78592;BME280;67889;48.352;11.392;2023-03-01T09:27:24;96661.53;;;2.49;59.51
78592;BME280;67889;48.352;11.392;2023-03-01T09:29:50;96668.72;;;2.66;60.13
78592;BME280;67889;48.352;11.392;2023-03-01T09:32:15;96667.06;;;3.03;60.20
78592;BME280;67889;48.352;11.392;2023-03-01T09:34:41;96661.88;;;3.39;59.27
78592;BME280;67889;48.352;11.392;2023-03-01T09:37:26;96661.47;;;3.49;57.25
78592;BME280;67889;48.352;11.392;2023-03-01T09:39:52;96657.94;;;3.37;58.65
78592;BME280;67889;48.352;11.392;2023-03-01T09:42:17;96659.38;;;3.34;55.29
78592;BME280;67889;48.352;11.392;2023-03-01T09:44:56;96647.63;;;3.60;55.27
78592;BME280;67889;48.352;11.392;2023-03-01T09:47:29;96651.13;;;4.05;54.97
78592;BME280;67889;48.352;11.392;2023-03-01T09:50:10;96641.84;;;4.51;53.98
78592;BME280;67889;48.352;11.392;2023-03-01T09:52:43;96636.38;;;5.25;52.64
78592;BME280;67889;48.352;11.392;2023-03-01T09:55:38;96641.53;;;5.58;48.47
78592;BME280;67889;48.352;11.392;2023-03-01T10:00:49;96629.13;;;6.12;48.78
78592;BME280;67889;48.352;11.392;2023-03-01T10:03:26;96626.69;;;7.05;45.35
78592;BME280;67889;48.352;11.392;2023-03-01T10:05:59;96625.50;;;7.61;45.83
78592;BME280;67889;48.352;11.392;2023-03-01T10:08:42;96623.09;;;7.56;43.64
78592;BME280;67889;48.352;11.392;2023-03-01T10:11:38;96621.34;;;7.09;45.01
78592;BME280;67889;48.352;11.392;2023-03-01T10:20:10;96609.38;;;7.87;42.09
78592;BME280;67889;48.352;11.392;2023-03-01T10:22:39;96603.94;;;7.87;44.37
78592;BME280;67889;48.352;11.392;2023-03-01T10:25:05;96603.78;;;8.68;41.36
78592;BME280;67889;48.352;11.392;2023-03-01T10:27:45;96608.09;;;9.29;39.63
78592;BME280;67889;48.352;11.392;2023-03-01T10:30:34;96595.78;;;10.46;37.59
78592;BME280;67889;48.352;11.392;2023-03-01T10:33:01;96602.03;;;11.09;35.83
78592;BME280;67889;48.352;11.392;2023-03-01T10:35:29;96585.16;;;9.56;37.92
78592;BME280;67889;48.352;11.392;2023-03-01T10:40:22;96585.44;;;9.14;41.58
78592;BME280;67889;48.352;11.392;2023-03-01T10:42:49;96581.28;;;9.24;38.71
78592;BME280;67889;48.352;11.392;2023-03-01T10:48:17;96582.75;;;8.88;39.54
78592;BME280;67889;48.352;11.392;2023-03-01T10:50:49;96576.13;;;7.67;41.57
78592;BME280;67889;48.352;11.392;2023-03-01T10:53:27;96581.75;;;8.24;44.27
78592;BME280;67889;48.352;11.392;2023-03-01T10:56:14;96567.22;;;8.85;42.21
78592;BME280;67889;48.352;11.392;2023-03-01T10:58:56;96580.66;;;9.71;40.01
78592;BME280;67889;48.352;11.392;2023-03-01T11:04:09;96556.59;;;9.69;40.04
78592;BME280;67889;48.352;11.392;2023-03-01T11:06:36;96554.97;;;11.05;36.52
78592;BME280;67889;48.352;11.392;2023-03-01T11:09:19;96544.03;;;12.34;34.02
78592;BME280;67889;48.352;11.392;2023-03-01T11:11:45;96542.22;;;13.50;30.97
78592;BME280;67889;48.352;11.392;2023-03-01T11:14:21;96539.22;;;13.13;31.39
78592;BME280;67889;48.352;11.392;2023-03-01T11:16:57;96536.56;;;11.71;35.05
78592;BME280;67889;48.352;11.392;2023-03-01T11:19:23;96528.75;;;11.62;34.57
78592;BME280;67889;48.352;11.392;2023-03-01T11:22:14;96517.94;;;12.37;33.94
78592;BME280;67889;48.352;11.392;2023-03-01T11:24:46;96520.28;;;13.68;30.15
78592;BME280;67889;48.352;11.392;2023-03-01T11:27:20;96523.94;;;13.37;31.43
78592;BME280;67889;48.352;11.392;2023-03-01T11:32:39;96516.63;;;13.89;29.58
78592;BME280;67889;48.352;11.392;2023-03-01T11:35:19;96507.91;;;14.94;28.23
78592;BME280;67889;48.352;11.392;2023-03-01T11:43:52;96484.84;;;15.56;26.57
78592;BME280;67889;48.352;11.392;2023-03-01T12:08:38;96435.16;;;17.70;23.34
78592;BME280;67889;48.352;11.392;2023-03-01T12:14:18;96447.03;;;17.83;23.48
78592;BME280;67889;48.352;11.392;2023-03-01T12:22:18;96438.72;;;15.82;26.27
78592;BME280;67889;48.352;11.392;2023-03-01T12:28:02;96421.88;;;19.58;22.48
78592;BME280;67889;48.352;11.392;2023-03-01T12:33:25;96411.47;;;19.50;23.07
78592;BME280;67889;48.352;11.392;2023-03-01T12:39:01;96410.25;;;19.25;22.41
78592;BME280;67889;48.352;11.392;2023-03-01T12:47:35;96406.28;;;9.92;41.27
78592;BME280;67889;48.352;11.392;2023-03-01T12:50:22;96406.66;;;9.02;42.48
78592;BME280;67889;48.352;11.392;2023-03-01T12:52:52;96404.56;;;7.98;45.44
78592;BME280;67889;48.352;11.392;2023-03-01T12:55:26;96393.69;;;7.68;47.32
78592;BME280;67889;48.352;11.392;2023-03-01T13:06:37;96404.75;;;6.53;49.19
78592;BME280;67889;48.352;11.392;2023-03-01T13:11:43;96405.25;;;6.20;53.28
78592;BME280;67889;48.352;11.392;2023-03-01T13:16:48;96401.78;;;6.58;53.14
78592;BME280;67889;48.352;11.392;2023-03-01T13:19:25;96406.09;;;6.24;50.09
78592;BME280;67889;48.352;11.392;2023-03-01T13:21:53;96412.28;;;6.24;52.26
78592;BME280;67889;48.352;11.392;2023-03-01T13:24:35;96406.31;;;6.34;53.46
78592;BME280;67889;48.352;11.392;2023-03-01T13:29:52;96406.34;;;6.54;52.36
78592;BME280;67889;48.352;11.392;2023-03-01T13:34:46;96400.56;;;6.55;52.66
78592;BME280;67889;48.352;11.392;2023-03-01T13:37:24;96405.69;;;6.41;51.90
78592;BME280;67889;48.352;11.392;2023-03-01T13:39:51;96398.94;;;6.31;53.71
78592;BME280;67889;48.352;11.392;2023-03-01T13:42:37;96410.94;;;6.34;53.76
78592;BME280;67889;48.352;11.392;2023-03-01T13:45:04;96401.50;;;6.43;54.21
78592;BME280;67889;48.352;11.392;2023-03-01T13:47:30;96386.94;;;6.48;53.00
78592;BME280;67889;48.352;11.392;2023-03-01T13:50:00;96390.19;;;6.38;52.29
78592;BME280;67889;48.352;11.392;2023-03-01T13:54:59;96385.56;;;6.38;52.67
78592;BME280;67889;48.352;11.392;2023-03-01T13:57:32;96366.97;;;6.33;55.04
78592;BME280;67889;48.352;11.392;2023-03-01T13:59:58;96373.56;;;6.36;55.17
78592;BME280;67889;48.352;11.392;2023-03-01T14:02:23;96372.78;;;6.35;55.58
78592;BME280;67889;48.352;11.392;2023-03-01T14:04:56;96375.41;;;6.32;55.14
78592;BME280;67889;48.352;11.392;2023-03-01T14:07:23;96380.97;;;6.39;54.99
78592;BME280;67889;48.352;11.392;2023-03-01T14:10:11;96372.78;;;6.35;53.33
78592;BME280;67889;48.352;11.392;2023-03-01T14:12:53;96366.88;;;6.30;54.64
78592;BME280;67889;48.352;11.392;2023-03-01T14:15:29;96367.03;;;6.18;55.13
78592;BME280;67889;48.352;11.392;2023-03-01T14:20:53;96373.84;;;6.31;55.32
78592;BME280;67889;48.352;11.392;2023-03-01T14:23:22;96366.31;;;6.21;53.99
78592;BME280;67889;48.352;11.392;2023-03-01T14:25:50;96370.94;;;6.20;56.78
78592;BME280;67889;48.352;11.392;2023-03-01T14:28:20;96363.75;;;6.08;55.29
78592;BME280;67889;48.352;11.392;2023-03-01T14:30:54;96365.16;;;6.02;56.67
78592;BME280;67889;48.352;11.392;2023-03-01T14:38:46;96349.84;;;6.26;56.01
78592;BME280;67889;48.352;11.392;2023-03-01T14:41:19;96348.69;;;6.27;57.24
78592;BME280;67889;48.352;11.392;2023-03-01T14:43:49;96351.09;;;6.32;56.82
78592;BME280;67889;48.352;11.392;2023-03-01T14:46:24;96348.69;;;6.27;56.60
78592;BME280;67889;48.352;11.392;2023-03-01T14:48:54;96337.59;;;6.32;58.36
78592;BME280;67889;48.352;11.392;2023-03-01T14:51:20;96332.50;;;6.27;57.10
78592;BME280;67889;48.352;11.392;2023-03-01T14:53:47;96323.31;;;6.31;56.39
78592;BME280;67889;48.352;11.392;2023-03-01T14:56:15;96326.81;;;6.12;55.47